Time;durP1;ratioP1;P1;durP2;ratioP2;P2;SDS_P1;SDS_P2;PMS_P1;PMS_P2;Temp;Humidity;BMP_temperature;BMP_pressure;BME280_temperature;BME280_humidity;BME280_pressure;Samples;Min_cycle;Max_cycle;Signal;HPM_P1;HPM_P2
2021/12/20 00:01:44;;;;;;;0.80;0.80;;;0.50;99.90;;;;;;5012412;28;20207;-67
2021/12/20 00:04:10;;;;;;;0.65;0.65;;;0.50;99.90;;;;;;5011470;28;20225;-67
2021/12/20 00:06:35;;;;;;;0.75;0.75;;;0.50;99.90;;;;;;5012755;28;20662;-67
2021/12/20 00:09:02;;;;;;;0.70;0.70;;;0.40;99.90;;;;;;5012115;28;20253;-67
2021/12/20 00:11:28;;;;;;;0.60;0.60;;;0.40;99.90;;;;;;5013249;28;20301;-67
2021/12/20 00:13:53;;;;;;;0.60;0.60;;;0.50;99.90;;;;;;5011441;28;20302;-67
2021/12/20 00:16:19;;;;;;;0.60;0.60;;;0.60;99.90;;;;;;5013651;28;20633;-68
2021/12/20 00:18:45;;;;;;;0.70;0.70;;;0.40;99.90;;;;;;5013571;28;20257;-67
2021/12/20 00:21:11;;;;;;;0.73;0.73;;;0.40;99.90;;;;;;5013252;28;20235;-68
2021/12/20 00:23:37;;;;;;;0.70;0.70;;;0.30;99.90;;;;;;5013543;28;20241;-67
2021/12/20 00:26:03;;;;;;;0.60;0.60;;;0.40;99.90;;;;;;5012266;28;20235;-67
2021/12/20 00:28:29;;;;;;;0.70;0.70;;;0.50;99.90;;;;;;5010760;28;20635;-67
2021/12/20 00:30:55;;;;;;;0.70;0.70;;;0.60;99.90;;;;;;5012214;28;20207;-67
2021/12/20 00:33:21;;;;;;;0.75;0.75;;;0.60;99.90;;;;;;5013393;28;20261;-67
2021/12/20 00:35:47;;;;;;;0.70;0.70;;;0.70;99.90;;;;;;5008735;28;20349;-67
2021/12/20 00:40:57;;;;;;;0.63;0.63;;;0.90;99.90;;;;;;5006899;28;20257;-67
2021/12/20 00:43:23;;;;;;;0.70;0.70;;;0.90;99.90;;;;;;5011582;28;20207;-67
2021/12/20 00:45:49;;;;;;;0.60;0.60;;;0.90;99.90;;;;;;5011846;28;20203;-67
2021/12/20 00:48:15;;;;;;;0.77;0.77;;;0.90;99.90;;;;;;5011951;28;20203;-67
2021/12/20 00:50:42;;;;;;;0.60;0.60;;;0.90;99.90;;;;;;5013048;28;20215;-67
2021/12/20 00:53:10;;;;;;;0.68;0.68;;;0.90;99.90;;;;;;5013117;28;20194;-68
2021/12/20 00:55:35;;;;;;;0.70;0.70;;;0.90;99.90;;;;;;5011542;28;20199;-67
2021/12/20 00:58:02;;;;;;;0.60;0.60;;;0.90;99.90;;;;;;5012885;28;20209;-67
2021/12/20 01:00:38;;;;;;;0.50;0.50;;;0.80;99.90;;;;;;5011424;28;20206;-66
2021/12/20 01:03:06;;;;;;;0.60;0.60;;;0.80;99.90;;;;;;5025050;28;20199;-67
2021/12/20 01:05:33;;;;;;;2.13;1.92;;;0.70;99.90;;;;;;5011667;28;20646;-67
2021/12/20 01:08:01;;;;;;;0.70;0.70;;;0.70;99.90;;;;;;5012860;28;20266;-67
2021/12/20 01:10:29;;;;;;;0.63;0.63;;;0.60;99.90;;;;;;4994114;28;20287;-67
2021/12/20 01:12:58;;;;;;;0.65;0.65;;;0.70;99.90;;;;;;5011465;28;20241;-67
2021/12/20 01:15:30;;;;;;;0.70;0.70;;;0.60;99.90;;;;;;5012540;28;20227;-67
2021/12/20 01:17:56;;;;;;;0.60;0.60;;;0.70;99.90;;;;;;5012241;28;20221;-68
2021/12/20 01:20:22;;;;;;;0.77;0.77;;;0.60;99.90;;;;;;5012807;28;20207;-70
2021/12/20 01:22:50;;;;;;;0.70;0.70;;;0.50;99.90;;;;;;5010876;28;20728;-67
2021/12/20 01:25:17;;;;;;;2.20;2.00;;;0.40;99.90;;;;;;5027336;28;20202;-67
2021/12/20 01:27:43;;;;;;;0.65;0.65;;;0.30;99.90;;;;;;5013317;28;20565;-67
2021/12/20 01:30:11;;;;;;;0.60;0.60;;;0.30;99.90;;;;;;5011104;28;20570;-68
2021/12/20 01:32:36;;;;;;;0.65;0.65;;;0.20;99.90;;;;;;5011039;28;20579;-67
2021/12/20 01:35:03;;;;;;;0.60;0.60;;;0.30;99.90;;;;;;5012147;28;20293;-67
2021/12/20 01:37:29;;;;;;;0.60;0.60;;;0.40;99.90;;;;;;5012061;28;20211;-67
2021/12/20 01:39:58;;;;;;;0.60;0.60;;;0.30;99.90;;;;;;5010986;28;20720;-67
2021/12/20 01:42:25;;;;;;;0.50;0.50;;;0.30;99.90;;;;;;5010626;28;20597;-67
2021/12/20 01:44:55;;;;;;;0.70;0.70;;;0.30;99.90;;;;;;5011010;28;20510;-67
2021/12/20 01:47:21;;;;;;;0.75;0.75;;;0.10;99.90;;;;;;5011850;28;20191;-67
2021/12/20 01:50:02;;;;;;;0.77;0.77;;;0.10;99.90;;;;;;5012130;28;20231;-67
2021/12/20 01:52:39;;;;;;;0.70;0.70;;;0.10;99.90;;;;;;5003488;28;20187;-67
2021/12/20 01:55:17;;;;;;;0.65;0.65;;;0.20;99.90;;;;;;5010793;28;20237;-67
2021/12/20 01:57:42;;;;;;;0.63;0.63;;;0.10;99.90;;;;;;5011829;28;20669;-67
2021/12/20 02:00:16;;;;;;;0.70;0.70;;;0.10;99.90;;;;;;5010540;28;20239;-67
2021/12/20 02:02:43;;;;;;;0.70;0.70;;;0.10;99.90;;;;;;5009171;28;20289;-70
2021/12/20 02:05:20;;;;;;;0.73;0.73;;;0.20;99.90;;;;;;5010538;28;20199;-70
2021/12/20 02:10:38;;;;;;;0.63;0.63;;;0.30;99.90;;;;;;4994326;28;21928;-70
2021/12/20 02:13:04;;;;;;;0.70;0.70;;;0.20;99.90;;;;;;5011839;28;20217;-70
2021/12/20 02:15:30;;;;;;;0.80;0.80;;;0.20;99.90;;;;;;5010023;28;20230;-70
2021/12/20 02:17:55;;;;;;;0.70;0.70;;;0.20;99.90;;;;;;5010237;28;20655;-70
2021/12/20 02:20:28;;;;;;;0.80;0.80;;;0.10;99.90;;;;;;5011238;28;20535;-71
2021/12/20 02:22:56;;;;;;;0.70;0.70;;;0.10;99.90;;;;;;5008878;28;20298;-71
2021/12/20 02:25:22;;;;;;;0.60;0.60;;;0.10;99.90;;;;;;5010186;28;20681;-70
2021/12/20 02:27:48;;;;;;;0.65;0.65;;;-0.10;99.90;;;;;;5011352;28;20195;-70
2021/12/20 02:30:37;;;;;;;0.60;0.60;;;-0.10;99.90;;;;;;5010156;28;20542;-70
2021/12/20 02:38:19;;;;;;;17.38;2.35;;;-0.40;99.90;;;;;;5010699;28;20210;-70
2021/12/20 02:40:46;;;;;;;0.70;0.70;;;-0.50;99.90;;;;;;5011287;28;20207;-70
2021/12/20 02:43:15;;;;;;;0.70;0.70;;;-0.70;99.90;;;;;;5011277;28;20662;-70
2021/12/20 02:45:42;;;;;;;0.65;0.65;;;-0.70;99.90;;;;;;5009756;28;20579;-70
2021/12/20 02:48:08;;;;;;;0.65;0.65;;;-0.70;99.90;;;;;;5012377;28;20216;-70
2021/12/20 02:50:34;;;;;;;0.60;0.60;;;-0.60;99.90;;;;;;5009729;28;20290;-70
2021/12/20 02:53:00;;;;;;;0.60;0.60;;;-0.50;99.90;;;;;;5011237;28;20282;-71
2021/12/20 02:55:25;;;;;;;0.70;0.70;;;-0.40;99.90;;;;;;5009985;28;20229;-70
2021/12/20 02:57:51;;;;;;;0.50;0.50;;;-0.30;99.90;;;;;;5010865;28;20214;-71
2021/12/20 03:00:17;;;;;;;0.70;0.70;;;-0.30;99.90;;;;;;5009253;28;20282;-71
2021/12/20 03:02:42;;;;;;;0.60;0.60;;;-0.20;99.90;;;;;;5009076;28;20194;-70
2021/12/20 03:05:09;;;;;;;0.50;0.50;;;-0.30;99.90;;;;;;5009188;28;20210;-70
2021/12/20 03:07:46;;;;;;;0.60;0.60;;;-0.30;99.90;;;;;;5010792;28;20203;-70
2021/12/20 03:10:13;;;;;;;0.90;0.90;;;-0.30;99.90;;;;;;5009486;28;20202;-71
2021/12/20 03:12:38;;;;;;;0.73;0.73;;;-0.20;99.90;;;;;;5010858;28;20226;-70
2021/12/20 03:15:11;;;;;;;6.10;1.90;;;-0.10;99.90;;;;;;5009400;28;20693;-70
2021/12/20 03:17:37;;;;;;;0.60;0.60;;;-0.10;99.90;;;;;;5010534;28;20222;-70
2021/12/20 03:20:04;;;;;;;0.60;0.60;;;0.20;99.90;;;;;;5009712;28;20206;-70
2021/12/20 03:22:30;;;;;;;0.70;0.70;;;0.30;99.90;;;;;;5008115;28;20238;-70
2021/12/20 03:24:56;;;;;;;0.60;0.60;;;0.30;99.90;;;;;;5009399;28;20281;-70
2021/12/20 03:27:21;;;;;;;0.60;0.60;;;0.10;99.90;;;;;;5010718;28;20211;-70
2021/12/20 03:29:47;;;;;;;0.80;0.80;;;0.10;99.90;;;;;;5010971;28;20234;-70
2021/12/20 03:32:13;;;;;;;0.57;0.57;;;0.10;99.90;;;;;;5009683;28;20203;-71
2021/12/20 03:34:39;;;;;;;0.68;0.68;;;0.10;99.90;;;;;;5010688;28;20233;-70
2021/12/20 03:37:04;;;;;;;0.60;0.60;;;0.10;99.90;;;;;;5009122;28;20290;-71
2021/12/20 03:39:30;;;;;;;0.80;0.80;;;0.10;99.90;;;;;;5010486;28;20218;-70
2021/12/20 03:41:56;;;;;;;0.70;0.70;;;0.10;99.90;;;;;;5009294;28;20249;-70
2021/12/20 03:44:22;;;;;;;0.70;0.70;;;0.10;99.90;;;;;;5007945;28;20255;-71
2021/12/20 03:46:47;;;;;;;0.70;0.70;;;0.00;99.90;;;;;;5009452;28;20225;-71
2021/12/20 03:49:14;;;;;;;0.80;0.80;;;-0.10;99.90;;;;;;5013984;28;20207;-71
2021/12/20 03:51:39;;;;;;;0.60;0.60;;;-0.20;99.90;;;;;;5014257;28;20310;-70
2021/12/20 03:54:06;;;;;;;0.60;0.60;;;-0.10;99.90;;;;;;5013312;28;20297;-70
2021/12/20 03:56:32;;;;;;;0.70;0.70;;;-0.10;99.90;;;;;;5014082;28;20605;-71
2021/12/20 03:58:58;;;;;;;0.70;0.70;;;-0.20;99.90;;;;;;5012656;28;20207;-71
2021/12/20 04:01:25;;;;;;;0.70;0.70;;;-0.20;99.90;;;;;;5012666;28;20732;-71
2021/12/20 04:03:51;;;;;;;0.70;0.70;;;-0.30;99.90;;;;;;5012672;28;20737;-70
2021/12/20 04:06:17;;;;;;;0.70;0.70;;;-0.40;99.90;;;;;;5012563;28;20684;-70
2021/12/20 04:08:43;;;;;;;0.70;0.70;;;-0.50;99.90;;;;;;5013819;28;20207;-71
2021/12/20 04:11:09;;;;;;;0.50;0.50;;;-0.50;99.90;;;;;;5012533;28;20681;-71
2021/12/20 04:13:35;;;;;;;0.70;0.70;;;-0.50;99.90;;;;;;5012385;28;20214;-70
2021/12/20 04:16:02;;;;;;;0.68;0.68;;;-0.60;99.90;;;;;;5012178;28;20697;-71
2021/12/20 04:18:31;;;;;;;0.80;0.80;;;-0.70;99.90;;;;;;5013542;28;20221;-71
2021/12/20 04:20:57;;;;;;;0.70;0.70;;;-0.70;99.90;;;;;;5012262;28;20297;-71
2021/12/20 04:23:23;;;;;;;0.70;0.70;;;-0.80;99.90;;;;;;5013452;28;20352;-71
2021/12/20 04:25:48;;;;;;;0.70;0.70;;;-0.90;99.90;;;;;;5013724;28;20234;-71
2021/12/20 04:28:14;;;;;;;0.60;0.60;;;-0.90;99.90;;;;;;5013687;28;20202;-71
2021/12/20 04:30:40;;;;;;;0.70;0.70;;;-1.00;99.90;;;;;;5012122;28;20328;-71
2021/12/20 04:33:06;;;;;;;0.70;0.70;;;-1.10;99.90;;;;;;5012097;28;20210;-71
2021/12/20 04:35:32;;;;;;;0.70;0.70;;;-1.20;99.90;;;;;;5009934;28;20227;-71
2021/12/20 04:37:59;;;;;;;0.80;0.80;;;-1.30;99.90;;;;;;5026579;28;20213;-71
2021/12/20 04:40:25;;;;;;;0.70;0.70;;;-1.40;99.90;;;;;;5012620;28;20212;-71
2021/12/20 04:42:54;;;;;;;0.70;0.70;;;-1.60;99.90;;;;;;5013083;28;20612;-71
2021/12/20 04:45:20;;;;;;;0.73;0.73;;;-1.70;99.90;;;;;;5013192;28;20202;-71
2021/12/20 04:47:46;;;;;;;0.70;0.70;;;-1.80;99.90;;;;;;5013201;28;20214;-71
2021/12/20 04:50:12;;;;;;;0.80;0.80;;;-1.90;99.90;;;;;;5013122;28;20211;-71
2021/12/20 04:52:38;;;;;;;0.80;0.80;;;-2.00;99.90;;;;;;5012988;28;20206;-71
2021/12/20 04:55:08;;;;;;;0.80;0.80;;;-2.10;99.90;;;;;;5010403;28;20233;-71
2021/12/20 04:57:33;;;;;;;0.80;0.80;;;-2.10;99.90;;;;;;5012128;28;20349;-71
2021/12/20 04:59:59;;;;;;;0.80;0.80;;;-2.20;99.90;;;;;;5012300;28;20342;-71
2021/12/20 05:02:25;;;;;;;0.73;0.73;;;-2.10;99.90;;;;;;5009987;28;20203;-71
2021/12/20 05:04:51;;;;;;;0.70;0.70;;;-2.20;99.90;;;;;;5010188;28;20268;-71
2021/12/20 05:07:17;;;;;;;1.42;1.35;;;-2.20;99.90;;;;;;5012734;28;20214;-71
2021/12/20 05:09:43;;;;;;;0.77;0.77;;;-2.30;99.90;;;;;;5012584;28;20207;-70
2021/12/20 05:12:13;;;;;;;0.88;0.88;;;-2.30;99.90;;;;;;5011407;28;20210;-71
2021/12/20 05:14:42;;;;;;;0.80;0.80;;;-2.10;99.90;;;;;;5011406;28;20269;-71
2021/12/20 05:17:10;;;;;;;0.85;0.85;;;-2.10;99.90;;;;;;5012641;28;20593;-71
2021/12/20 05:19:36;;;;;;;0.70;0.70;;;-2.10;99.90;;;;;;5011444;28;20202;-71
2021/12/20 05:22:02;;;;;;;2.13;1.92;;;-1.90;99.90;;;;;;5011558;28;20203;-71
2021/12/20 05:24:28;;;;;;;0.80;0.80;;;-1.80;99.90;;;;;;5012270;28;20209;-71
2021/12/20 05:26:53;;;;;;;0.70;0.70;;;-1.70;99.90;;;;;;5011162;28;20211;-71
2021/12/20 05:29:19;;;;;;;0.70;0.70;;;-1.70;99.90;;;;;;5012423;28;20554;-71
2021/12/20 05:31:45;;;;;;;0.70;0.70;;;-1.70;99.90;;;;;;5011365;28;20210;-71
2021/12/20 05:34:11;;;;;;;0.70;0.70;;;-1.60;99.90;;;;;;5012793;28;20237;-71
2021/12/20 05:36:37;;;;;;;0.80;0.80;;;-1.70;99.90;;;;;;5011935;28;20578;-72
2021/12/20 05:39:03;;;;;;;0.70;0.70;;;-1.60;99.90;;;;;;5012308;28;20649;-72
2021/12/20 05:41:29;;;;;;;0.82;0.82;;;-1.40;99.90;;;;;;5010711;28;20207;-71
2021/12/20 05:43:55;;;;;;;0.70;0.70;;;-1.20;99.90;;;;;;5012125;28;20257;-71
2021/12/20 05:46:20;;;;;;;0.90;0.90;;;-1.00;99.90;;;;;;5012076;28;20645;-72
2021/12/20 05:48:46;;;;;;;0.70;0.70;;;-1.00;99.90;;;;;;5010960;28;20616;-72
2021/12/20 05:51:12;;;;;;;0.85;0.85;;;-1.00;99.90;;;;;;5012120;28;20224;-71
2021/12/20 05:53:37;;;;;;;0.52;0.52;;;-0.90;99.90;;;;;;5011160;28;20345;-71
2021/12/20 05:56:04;;;;;;;0.68;0.68;;;-1.00;99.90;;;;;;5009377;28;20690;-71
2021/12/20 05:58:30;;;;;;;0.70;0.70;;;-1.10;99.90;;;;;;5010394;28;20717;-72
2021/12/20 06:00:56;;;;;;;0.70;0.70;;;-1.20;99.90;;;;;;5011544;28;20199;-72
2021/12/20 06:03:21;;;;;;;0.70;0.70;;;-1.40;99.90;;;;;;5011601;28;20213;-72
2021/12/20 06:05:47;;;;;;;0.60;0.60;;;-1.60;99.90;;;;;;5011716;28;20194;-71
2021/12/20 06:08:13;;;;;;;0.80;0.80;;;-1.50;99.90;;;;;;5010543;28;20546;-72
2021/12/20 06:10:39;;;;;;;0.70;0.70;;;-1.50;99.90;;;;;;5011282;28;20613;-72
2021/12/20 06:13:05;;;;;;;0.70;0.70;;;-1.50;99.90;;;;;;5010036;28;20353;-71
2021/12/20 06:15:31;;;;;;;0.70;0.70;;;-1.40;99.90;;;;;;5011341;28;20234;-72
2021/12/20 06:17:58;;;;;;;0.60;0.60;;;-1.40;99.90;;;;;;5011882;28;20211;-71
2021/12/20 06:20:24;;;;;;;1.10;1.10;;;-1.40;99.90;;;;;;5011802;28;20206;-71
2021/12/20 06:22:50;;;;;;;0.70;0.70;;;-1.40;99.90;;;;;;5011611;28;20199;-71
2021/12/20 06:25:16;;;;;;;0.80;0.80;;;-1.20;99.90;;;;;;5011492;28;20213;-71
2021/12/20 06:27:42;;;;;;;0.70;0.70;;;-1.20;99.90;;;;;;5011371;28;20209;-72
2021/12/20 06:30:10;;;;;;;0.80;0.80;;;-1.20;99.90;;;;;;5012696;28;20203;-72
2021/12/20 06:32:38;;;;;;;0.75;0.75;;;-1.20;99.90;;;;;;5011196;28;20206;-71
2021/12/20 06:35:05;;;;;;;0.80;0.80;;;-1.30;99.90;;;;;;5008780;28;20207;-71
2021/12/20 06:37:32;;;;;;;2.65;1.65;;;-1.40;99.90;;;;;;5011111;28;20210;-72
2021/12/20 06:39:58;;;;;;;0.80;0.80;;;-1.50;99.90;;;;;;5008702;28;20670;-71
2021/12/20 06:42:24;;;;;;;0.98;0.93;;;-1.60;99.90;;;;;;5010983;28;20205;-71
2021/12/20 06:44:50;;;;;;;0.90;0.90;;;-1.60;99.90;;;;;;5008948;28;20211;-72
2021/12/20 06:47:16;;;;;;;1.20;1.10;;;-1.60;99.90;;;;;;5011178;28;20197;-71
2021/12/20 06:49:42;;;;;;;1.40;1.30;;;-1.60;99.90;;;;;;5011069;28;20203;-71
2021/12/20 06:52:08;;;;;;;2.85;2.25;;;-1.60;99.90;;;;;;5011181;28;20208;-71
2021/12/20 06:54:34;;;;;;;0.80;0.80;;;-1.60;99.90;;;;;;5008384;28;20706;-71
2021/12/20 06:57:00;;;;;;;0.80;0.80;;;-1.70;99.90;;;;;;5011151;28;20207;-71
2021/12/20 06:59:25;;;;;;;0.90;0.90;;;-1.70;99.90;;;;;;5011009;28;20210;-71
2021/12/20 07:01:51;;;;;;;0.80;0.80;;;-1.70;99.90;;;;;;5010910;28;20241;-71
2021/12/20 07:04:17;;;;;;;0.60;0.60;;;-1.70;99.90;;;;;;5010112;28;20210;-71
2021/12/20 07:06:43;;;;;;;1.40;1.30;;;-1.70;99.90;;;;;;5010966;28;20199;-71
2021/12/20 07:09:09;;;;;;;0.80;0.80;;;-1.70;99.90;;;;;;5009471;28;20264;-71
2021/12/20 07:11:35;;;;;;;0.68;0.68;;;-1.70;99.90;;;;;;5011213;28;20290;-71
2021/12/20 07:14:01;;;;;;;2.67;2.25;;;-1.70;99.90;;;;;;5011226;28;20306;-71
2021/12/20 07:16:32;;;;;;;0.80;0.80;;;-1.70;99.90;;;;;;5009342;28;20238;-71
2021/12/20 07:18:57;;;;;;;0.68;0.68;;;-1.60;99.90;;;;;;5010859;28;20207;-71
2021/12/20 07:21:23;;;;;;;0.70;0.70;;;-1.60;99.90;;;;;;5008031;28;20225;-71
2021/12/20 07:23:49;;;;;;;0.98;0.98;;;-1.60;99.90;;;;;;5013357;28;20211;-72
2021/12/20 07:26:14;;;;;;;0.60;0.60;;;-1.60;99.90;;;;;;5014856;28;20256;-71
2021/12/20 07:28:44;;;;;;;0.70;0.70;;;-1.50;99.90;;;;;;5014394;28;20207;-70
2021/12/20 07:31:11;;;;;;;0.80;0.80;;;-1.50;99.90;;;;;;5014602;28;20306;-71
2021/12/20 07:33:37;;;;;;;1.75;1.30;;;-1.50;99.90;;;;;;5014590;28;20214;-71
2021/12/20 07:36:04;;;;;;;0.90;0.90;;;-1.50;99.90;;;;;;5013147;28;20202;-70
2021/12/20 07:38:29;;;;;;;1.60;1.20;;;-1.50;99.90;;;;;;5013008;28;20217;-70
2021/12/20 07:40:55;;;;;;;1.00;1.00;;;-1.60;99.90;;;;;;5013451;28;20195;-71
2021/12/20 07:43:21;;;;;;;0.68;0.68;;;-1.60;99.90;;;;;;5012942;28;20199;-71
2021/12/20 07:45:48;;;;;;;0.70;0.70;;;-1.70;99.90;;;;;;5012980;28;20265;-71
2021/12/20 07:48:18;;;;;;;1.95;1.55;;;-1.80;99.90;;;;;;5013117;28;20203;-71
2021/12/20 07:50:45;;;;;;;0.80;0.80;;;-1.90;99.90;;;;;;5013062;28;20219;-71
2021/12/20 07:53:11;;;;;;;0.80;0.80;;;-2.00;99.90;;;;;;5013355;28;20273;-71
2021/12/20 07:55:37;;;;;;;0.70;0.70;;;-2.10;99.90;;;;;;5012863;28;20211;-71
2021/12/20 07:58:03;;;;;;;0.80;0.80;;;-2.20;99.90;;;;;;5014159;28;20695;-71
2021/12/20 08:00:29;;;;;;;0.70;0.70;;;-2.20;99.90;;;;;;5013663;28;20211;-71
2021/12/20 08:02:56;;;;;;;0.60;0.60;;;-2.20;99.90;;;;;;5014182;28;20203;-71
2021/12/20 08:05:24;;;;;;;0.70;0.70;;;-2.30;99.90;;;;;;5013545;28;20285;-72
2021/12/20 08:07:50;;;;;;;0.60;0.60;;;-2.30;99.90;;;;;;5012708;28;20238;-71
2021/12/20 08:10:19;;;;;;;0.70;0.70;;;-2.30;99.90;;;;;;5013989;28;20266;-71
2021/12/20 08:12:45;;;;;;;0.70;0.70;;;-2.20;99.90;;;;;;5012522;28;20214;-71
2021/12/20 08:15:12;;;;;;;0.73;0.73;;;-2.20;99.90;;;;;;5012329;28;20223;-71
2021/12/20 08:17:38;;;;;;;0.70;0.70;;;-2.20;99.90;;;;;;5012366;28;20199;-71
2021/12/20 08:20:05;;;;;;;0.70;0.70;;;-2.20;99.90;;;;;;5012357;28;20525;-71
2021/12/20 08:22:31;;;;;;;0.70;0.70;;;-2.10;99.90;;;;;;5013572;28;20198;-71
2021/12/20 08:24:57;;;;;;;0.70;0.70;;;-2.20;99.90;;;;;;5012309;28;20211;-71
2021/12/20 08:27:23;;;;;;;0.75;0.75;;;-2.20;99.90;;;;;;5011989;28;20198;-71
2021/12/20 08:29:49;;;;;;;0.60;0.60;;;-2.20;99.90;;;;;;5013577;28;20218;-71
2021/12/20 08:32:15;;;;;;;0.60;0.60;;;-2.30;99.90;;;;;;5013390;28;20207;-71
2021/12/20 08:34:40;;;;;;;0.60;0.60;;;-2.40;99.90;;;;;;5012184;28;20561;-71
2021/12/20 08:37:06;;;;;;;0.60;0.60;;;-2.40;99.90;;;;;;5013214;28;20207;-70
2021/12/20 08:39:33;;;;;;;0.77;0.77;;;-2.50;99.90;;;;;;5011978;28;20213;-71
2021/12/20 08:41:59;;;;;;;0.77;0.77;;;-2.50;99.90;;;;;;5013170;28;20204;-71
2021/12/20 08:44:25;;;;;;;0.80;0.80;;;-2.60;99.90;;;;;;5010415;28;20200;-71
2021/12/20 08:46:52;;;;;;;0.80;0.80;;;-2.60;99.90;;;;;;5012024;28;20221;-72
2021/12/20 08:49:18;;;;;;;0.70;0.70;;;-2.60;99.90;;;;;;5011800;28;20202;-71
2021/12/20 08:51:45;;;;;;;0.80;0.80;;;-2.60;99.90;;;;;;5013172;28;20207;-71
2021/12/20 08:54:12;;;;;;;0.80;0.80;;;-2.60;99.90;;;;;;5011729;28;20199;-71
2021/12/20 08:56:38;;;;;;;0.82;0.82;;;-2.60;99.90;;;;;;4994720;28;20223;-70
2021/12/20 08:59:05;;;;;;;0.90;0.90;;;-2.60;99.90;;;;;;5013588;28;20203;-71
2021/12/20 09:01:31;;;;;;;0.80;0.80;;;-2.50;99.90;;;;;;5012737;28;20202;-71
2021/12/20 09:03:57;;;;;;;0.80;0.80;;;-2.40;99.90;;;;;;5027461;28;20206;-71
2021/12/20 09:06:25;;;;;;;0.80;0.80;;;-2.40;99.90;;;;;;5012716;28;20199;-71
2021/12/20 09:08:54;;;;;;;0.90;0.90;;;-2.30;99.90;;;;;;5011718;28;20293;-71
2021/12/20 09:11:23;;;;;;;2.38;2.17;;;-2.30;99.90;;;;;;5010183;28;20685;-71
2021/12/20 09:13:50;;;;;;;0.60;0.60;;;-2.20;99.90;;;;;;5011992;28;20589;-72
2021/12/20 09:16:15;;;;;;;0.80;0.80;;;-2.10;99.90;;;;;;5011269;28;20326;-70
2021/12/20 09:18:41;;;;;;;0.80;0.80;;;-2.10;99.90;;;;;;5012324;28;20324;-70
2021/12/20 09:21:10;;;;;;;1.30;1.20;;;-2.00;99.90;;;;;;5012370;28;20207;-71
2021/12/20 09:23:36;;;;;;;2.60;2.30;;;-1.90;99.90;;;;;;5011014;28;20199;-70
2021/12/20 09:26:02;;;;;;;0.82;0.82;;;-1.90;99.90;;;;;;4997975;28;20199;-70
2021/12/20 09:28:28;;;;;;;1.63;1.52;;;-1.80;99.90;;;;;;5008489;28;20265;-70
2021/12/20 09:30:54;;;;;;;0.90;0.90;;;-1.80;99.90;;;;;;5011212;28;20583;-71
2021/12/20 09:33:20;;;;;;;1.20;1.10;;;-1.70;99.90;;;;;;5012212;28;20281;-71
2021/12/20 09:35:46;;;;;;;1.30;1.20;;;-1.70;99.90;;;;;;5007544;28;20319;-70
2021/12/20 09:38:16;;;;;;;0.70;0.70;;;-1.60;99.90;;;;;;4999390;28;20211;-71
2021/12/20 09:41:13;;;;;;;0.80;0.80;;;-1.50;99.90;;;;;;5004835;28;20199;-70
2021/12/20 09:43:29;;;;;;;0.75;0.75;;;-1.50;99.90;;;;;;5010701;28;20230;-70
2021/12/20 09:45:56;;;;;;;0.75;0.75;;;-1.40;99.90;;;;;;5010682;28;20238;-70
2021/12/20 09:48:23;;;;;;;0.80;0.80;;;-1.40;99.90;;;;;;5010775;28;20289;-70
2021/12/20 09:50:48;;;;;;;0.80;0.80;;;-1.30;99.90;;;;;;5010781;28;20230;-71
2021/12/20 09:53:14;;;;;;;0.80;0.80;;;-1.30;99.90;;;;;;5010620;28;20234;-74
2021/12/20 09:55:46;;;;;;;0.80;0.80;;;-1.20;99.90;;;;;;5010551;28;20206;-74
2021/12/20 09:58:12;;;;;;;0.70;0.70;;;-1.20;99.90;;;;;;5011876;28;20617;-74
2021/12/20 10:00:39;;;;;;;0.75;0.75;;;-1.10;99.90;;;;;;5011589;28;20325;-74
2021/12/20 10:03:05;;;;;;;1.38;1.25;;;-1.10;99.90;;;;;;5011893;28;20277;-74
2021/12/20 10:05:32;;;;;;;2.17;1.90;;;-1.10;99.90;;;;;;5011544;28;20256;-74
2021/12/20 10:08:01;;;;;;;2.17;1.98;;;-1.00;99.90;;;;;;5010433;28;20257;-73
2021/12/20 10:10:47;;;;;;;3.05;2.22;;;-1.00;99.90;;;;;;5010486;28;20553;-73
2021/12/20 10:13:27;;;;;;;1.02;1.00;;;-0.90;99.90;;;;;;5010057;28;20203;-73
2021/12/20 10:15:53;;;;;;;1.00;1.00;;;-0.90;99.90;;;;;;5010275;28;20226;-74
2021/12/20 10:18:19;;;;;;;0.80;0.80;;;-0.90;99.90;;;;;;5010095;28;21349;-74
2021/12/20 10:20:51;;;;;;;0.90;0.90;;;-0.80;99.90;;;;;;5010009;28;20234;-74
2021/12/20 10:23:31;;;;;;;1.45;1.35;;;-0.80;99.90;;;;;;5010175;28;20613;-74
2021/12/20 10:26:09;;;;;;;1.83;1.70;;;-0.80;99.90;;;;;;5010091;28;20226;-74
2021/12/20 10:28:36;;;;;;;0.90;0.90;;;-0.70;99.90;;;;;;5009864;28;20221;-74
2021/12/20 10:31:09;;;;;;;1.48;1.38;;;-0.60;99.90;;;;;;5011355;28;20210;-73
2021/12/20 10:33:35;;;;;;;0.90;0.90;;;-0.40;99.90;;;;;;5011127;28;20206;-74
2021/12/20 10:36:06;;;;;;;1.50;1.40;;;-0.30;99.90;;;;;;5010626;28;21112;-73
2021/12/20 10:38:37;;;;;;;0.75;0.75;;;-0.40;99.90;;;;;;5010978;28;20208;-73
2021/12/20 10:41:27;;;;;;;4.20;2.90;;;-0.50;99.90;;;;;;5010000;28;20199;-74
2021/12/20 10:43:58;;;;;;;0.65;0.65;;;-0.70;99.90;;;;;;4995826;28;20637;-73
2021/12/20 10:46:32;;;;;;;0.98;0.98;;;-0.80;99.90;;;;;;5011164;28;20199;-73
2021/12/20 10:48:59;;;;;;;0.70;0.70;;;-0.70;99.90;;;;;;5009976;28;20259;-73
2021/12/20 10:51:28;;;;;;;0.70;0.70;;;-0.80;99.90;;;;;;5009476;28;20246;-74
2021/12/20 10:54:02;;;;;;;6.28;2.28;;;-0.70;99.90;;;;;;5011321;28;20537;-73
2021/12/20 10:56:34;;;;;;;0.70;0.70;;;-0.70;99.90;;;;;;4994924;28;20637;-72
2021/12/20 10:59:05;;;;;;;0.75;0.75;;;-0.70;99.90;;;;;;4997571;28;20267;-71
2021/12/20 11:04:13;;;;;;;0.70;0.70;;;-0.70;99.90;;;;;;4999168;28;20199;-71
2021/12/20 11:09:17;;;;;;;0.80;0.80;;;-0.80;99.90;;;;;;4997175;28;20199;-71
2021/12/20 11:12:02;;;;;;;0.80;0.80;;;-0.70;99.90;;;;;;5015049;28;20194;-71
2021/12/20 11:14:36;;;;;;;0.70;0.70;;;-0.70;99.90;;;;;;5010515;28;20692;-71
2021/12/20 11:17:05;;;;;;;0.73;0.73;;;-0.70;99.90;;;;;;5015021;28;20571;-71
2021/12/20 11:19:34;;;;;;;0.70;0.70;;;-0.60;99.90;;;;;;5014781;28;20211;-71
2021/12/20 11:22:18;;;;;;;0.80;0.80;;;-0.70;99.90;;;;;;5014813;28;20565;-71
2021/12/20 11:24:51;;;;;;;0.60;0.60;;;-0.70;99.90;;;;;;4997570;28;20569;-71
2021/12/20 11:27:19;;;;;;;0.77;0.77;;;-0.60;99.90;;;;;;5012197;28;20199;-71
2021/12/20 11:29:47;;;;;;;0.70;0.70;;;-0.60;99.90;;;;;;4995441;28;20324;-71
2021/12/20 11:32:13;;;;;;;0.70;0.70;;;-0.50;99.90;;;;;;5014654;28;20248;-71
2021/12/20 11:34:41;;;;;;;0.68;0.68;;;-0.40;99.90;;;;;;5014113;28;20225;-71
2021/12/20 11:37:27;;;;;;;0.75;0.75;;;-0.40;99.90;;;;;;5014289;28;20284;-71
2021/12/20 11:39:54;;;;;;;0.70;0.70;;;-0.40;99.90;;;;;;5013984;28;20267;-71
2021/12/20 11:42:20;;;;;;;0.75;0.75;;;-0.40;99.90;;;;;;5014607;28;20233;-71
2021/12/20 11:44:48;;;;;;;0.70;0.70;;;-0.40;99.90;;;;;;5014961;28;20202;-70
2021/12/20 11:47:26;;;;;;;0.63;0.63;;;-0.40;99.90;;;;;;5014648;28;20199;-71
2021/12/20 11:49:57;;;;;;;0.70;0.70;;;-0.40;99.90;;;;;;5013995;28;20209;-71
2021/12/20 11:52:23;;;;;;;0.70;0.70;;;-0.30;99.90;;;;;;5013095;28;20265;-71
2021/12/20 11:54:55;;;;;;;0.70;0.70;;;-0.30;99.90;;;;;;5013565;28;20211;-71
2021/12/20 11:57:34;;;;;;;0.60;0.60;;;-0.30;99.90;;;;;;5013995;28;20677;-71
2021/12/20 12:00:17;;;;;;;0.70;0.70;;;-0.30;99.90;;;;;;5013145;28;20229;-70
2021/12/20 12:02:45;;;;;;;0.80;0.80;;;-0.40;99.90;;;;;;5012110;28;20195;-70
2021/12/20 12:05:17;;;;;;;0.70;0.70;;;-0.50;99.90;;;;;;5013465;28;20242;-71
2021/12/20 12:07:44;;;;;;;0.70;0.70;;;-0.50;99.90;;;;;;5013036;28;20198;-70
2021/12/20 12:10:14;;;;;;;0.70;0.70;;;-0.50;99.90;;;;;;5013706;28;20230;-70
2021/12/20 12:12:43;;;;;;;0.47;0.47;;;-0.50;99.90;;;;;;5013205;28;20218;-71
2021/12/20 12:15:28;;;;;;;0.70;0.70;;;-0.50;99.90;;;;;;5014870;28;20242;-71
2021/12/20 12:17:57;;;;;;;0.75;0.75;;;-0.40;99.90;;;;;;5014068;28;20210;-71
2021/12/20 12:20:53;;;;;;;0.73;0.73;;;-0.40;99.90;;;;;;5013062;28;20199;-71
2021/12/20 12:23:24;;;;;;;0.63;0.63;;;-0.30;99.90;;;;;;5012369;28;20199;-71
2021/12/20 12:25:59;;;;;;;0.73;0.73;;;-0.30;99.90;;;;;;5013333;28;20217;-70
2021/12/20 12:28:27;;;;;;;0.70;0.70;;;-0.40;99.90;;;;;;5013299;28;20202;-71
2021/12/20 12:31:00;;;;;;;0.82;0.82;;;-0.40;99.90;;;;;;5013740;28;20190;-70
2021/12/20 12:33:29;;;;;;;0.80;0.80;;;-0.50;99.90;;;;;;5028598;28;20593;-71
2021/12/20 12:35:57;;;;;;;0.70;0.70;;;-0.50;99.90;;;;;;5012682;28;20210;-71
2021/12/20 12:38:48;;;;;;;0.85;0.85;;;-0.50;99.90;;;;;;5013642;28;20215;-70
2021/12/20 12:41:25;;;;;;;0.80;0.80;;;-0.50;99.90;;;;;;5012779;28;20214;-70
2021/12/20 12:44:08;;;;;;;1.23;1.15;;;-0.50;99.90;;;;;;5011684;28;20222;-71
2021/12/20 12:46:36;;;;;;;0.80;0.80;;;-0.50;99.90;;;;;;4995749;28;20206;-71
2021/12/20 12:49:20;;;;;;;0.80;0.80;;;-0.50;99.90;;;;;;4996365;28;20195;-70
2021/12/20 12:51:46;;;;;;;0.65;0.65;;;-0.60;99.90;;;;;;4996212;28;20204;-71
2021/12/20 12:54:42;;;;;;;0.82;0.82;;;-0.50;99.90;;;;;;5011871;28;20202;-70
2021/12/20 12:57:11;;;;;;;0.80;0.80;;;-0.60;99.90;;;;;;5011650;28;20219;-70
2021/12/20 12:59:55;;;;;;;0.70;0.70;;;-0.60;99.90;;;;;;5011856;28;20199;-70
2021/12/20 13:02:35;;;;;;;0.80;0.80;;;-0.60;99.90;;;;;;5011593;28;20207;-70
2021/12/20 13:05:01;;;;;;;0.70;0.70;;;-0.70;99.90;;;;;;5011641;28;20203;-70
2021/12/20 13:07:28;;;;;;;0.70;0.70;;;-0.70;99.90;;;;;;5012658;28;20256;-70
2021/12/20 13:09:57;;;;;;;0.55;0.55;;;-0.70;99.90;;;;;;5011601;28;20222;-70